createdAt,value
2022-07-26T00:00:21.238Z,0
2022-07-26T00:01:21.062Z,0
2022-07-26T00:02:25.567Z,0
2022-07-26T00:03:20.767Z,0
2022-07-26T00:04:20.761Z,0
2022-07-26T00:05:20.620Z,0
2022-07-26T00:06:23.483Z,0
2022-07-26T00:07:20.799Z,0
2022-07-26T00:08:23.918Z,0
2022-07-26T00:09:20.771Z,0
2022-07-26T00:10:20.791Z,0
2022-07-26T00:11:20.766Z,0
2022-07-26T00:12:21.370Z,0
2022-07-26T00:13:23.874Z,0
2022-07-26T00:14:20.662Z,0
2022-07-26T00:15:20.782Z,0
2022-07-26T00:16:21.155Z,0
2022-07-26T00:17:20.799Z,0
2022-07-26T00:18:20.826Z,0
2022-07-26T00:19:20.898Z,0
2022-07-26T00:20:20.788Z,0
2022-07-26T00:21:20.797Z,0
2022-07-26T00:22:20.824Z,0
2022-07-26T00:23:20.792Z,0
2022-07-26T00:24:23.960Z,0
2022-07-26T00:25:20.793Z,0
2022-07-26T00:26:20.806Z,0
2022-07-26T00:27:20.818Z,0
2022-07-26T00:28:20.802Z,0
2022-07-26T00:29:20.670Z,0
2022-07-26T00:30:20.801Z,0
2022-07-26T00:31:21.192Z,0
2022-07-26T00:32:20.828Z,0
2022-07-26T00:33:20.834Z,0
2022-07-26T00:34:21.335Z,0
2022-07-26T00:35:20.811Z,0
2022-07-26T00:36:20.811Z,0
2022-07-26T00:37:26.784Z,0
2022-07-26T00:38:21.075Z,0
2022-07-26T00:39:20.818Z,0
2022-07-26T00:40:20.843Z,0
2022-07-26T00:41:20.838Z,0
2022-07-26T00:42:20.691Z,0
2022-07-26T00:43:20.839Z,0
2022-07-26T00:44:20.851Z,0
2022-07-26T00:45:20.860Z,0
2022-07-26T00:46:21.281Z,0
2022-07-26T00:47:20.881Z,0
2022-07-26T00:48:22.480Z,0
2022-07-26T00:49:21.367Z,0
2022-07-26T00:50:20.857Z,0
2022-07-26T00:51:23.986Z,0
2022-07-26T00:52:20.893Z,0
2022-07-26T00:53:20.855Z,0
2022-07-26T00:54:20.856Z,0
2022-07-26T00:55:20.684Z,0
2022-07-26T00:56:22.164Z,0
2022-07-26T00:57:20.876Z,0
2022-07-26T00:58:20.871Z,0
2022-07-26T00:59:20.900Z,0
2022-07-26T01:00:20.891Z,0
2022-07-26T01:01:21.253Z,0
2022-07-26T01:02:25.621Z,0
2022-07-26T01:03:20.873Z,0
2022-07-26T01:04:20.885Z,0
2022-07-26T01:05:20.870Z,0
2022-07-26T01:06:23.967Z,0
2022-07-26T01:07:25.019Z,0
2022-07-26T01:08:20.884Z,0
2022-07-26T01:09:20.884Z,0
2022-07-26T01:10:20.879Z,0
2022-07-26T01:11:20.885Z,0
2022-07-26T01:12:20.942Z,0
2022-07-26T01:13:20.896Z,0
2022-07-26T01:14:20.895Z,0
2022-07-26T01:15:21.286Z,0
2022-07-26T01:16:21.419Z,0
2022-07-26T01:17:20.943Z,0
2022-07-26T01:18:23.921Z,0
2022-07-26T01:19:21.914Z,0
2022-07-26T01:20:20.934Z,0
2022-07-26T01:21:21.313Z,0
2022-07-26T01:22:21.745Z,0
2022-07-26T01:23:20.943Z,0
2022-07-26T01:24:20.907Z,0
2022-07-26T01:25:20.933Z,0
2022-07-26T01:26:21.213Z,0
2022-07-26T01:27:20.960Z,0
2022-07-26T01:28:27.103Z,0
2022-07-26T01:29:23.683Z,0
2022-07-26T01:30:20.925Z,0
2022-07-26T01:31:21.423Z,0
2022-07-26T01:32:20.963Z,0
2022-07-26T01:33:20.934Z,0
2022-07-26T01:34:22.059Z,0
2022-07-26T01:35:20.957Z,0
2022-07-26T01:36:20.936Z,0
2022-07-26T01:37:20.968Z,0
2022-07-26T01:38:20.976Z,0
2022-07-26T01:39:20.963Z,0
2022-07-26T01:40:21.974Z,0
2022-07-26T01:41:37.697Z,0
2022-07-26T01:42:20.991Z,0
2022-07-26T01:43:21.075Z,0
2022-07-26T01:44:20.965Z,0
2022-07-26T01:45:24.035Z,0
2022-07-26T01:46:21.373Z,0
2022-07-26T01:47:20.974Z,0
2022-07-26T01:48:20.966Z,0
2022-07-26T01:49:21.342Z,0
2022-07-26T01:50:20.968Z,0
2022-07-26T01:51:24.247Z,0
2022-07-26T01:52:20.980Z,0
2022-07-26T01:53:20.953Z,0
2022-07-26T01:54:29.040Z,0
2022-07-26T01:55:20.989Z,0
2022-07-26T01:56:23.816Z,0
2022-07-26T01:57:21.012Z,0
2022-07-26T01:58:21.012Z,0
2022-07-26T01:59:20.986Z,0
2022-07-26T02:00:20.990Z,0
2022-07-26T02:01:42.828Z,0
2022-07-26T02:02:24.480Z,0
2022-07-26T02:03:21.349Z,0
2022-07-26T02:04:20.983Z,0
2022-07-26T02:05:21.003Z,0
2022-07-26T02:06:21.725Z,0
2022-07-26T02:07:22.557Z,0
2022-07-26T02:08:26.710Z,0
2022-07-26T02:09:22.274Z,0
2022-07-26T02:10:21.955Z,0
2022-07-26T02:11:20.989Z,0
2022-07-26T02:12:21.043Z,0
2022-07-26T02:13:24.102Z,0
2022-07-26T02:14:34.981Z,0
2022-07-26T02:15:21.008Z,0
2022-07-26T02:16:21.504Z,0
2022-07-26T02:17:21.249Z,0
2022-07-26T02:18:24.037Z,0
2022-07-26T02:19:21.026Z,0
2022-07-26T02:20:21.028Z,0
2022-07-26T02:21:21.294Z,0
2022-07-26T02:22:21.079Z,0
2022-07-26T02:23:21.043Z,0
2022-07-26T02:24:24.485Z,0
2022-07-26T02:25:21.041Z,0
2022-07-26T02:26:21.024Z,0
2022-07-26T02:27:21.050Z,0
2022-07-26T02:28:21.099Z,0
2022-07-26T02:29:24.220Z,0
2022-07-26T02:30:21.036Z,0
2022-07-26T02:31:23.183Z,0
2022-07-26T02:32:21.287Z,0
2022-07-26T02:33:21.026Z,0
2022-07-26T02:34:21.049Z,0
2022-07-26T02:35:23.831Z,0
2022-07-26T02:36:21.032Z,0
2022-07-26T02:37:21.056Z,0
2022-07-26T02:38:22.093Z,0
2022-07-26T02:39:21.050Z,0
2022-07-26T02:40:26.443Z,0
2022-07-26T02:41:21.055Z,0
2022-07-26T02:42:21.107Z,0
2022-07-26T02:43:21.059Z,0
2022-07-26T02:44:21.064Z,0
2022-07-26T02:45:21.074Z,0
2022-07-26T02:46:21.227Z,0
2022-07-26T02:47:21.084Z,0
2022-07-26T02:48:21.547Z,0
2022-07-26T02:49:21.500Z,0
2022-07-26T02:50:21.111Z,0
2022-07-26T02:51:22.198Z,0
2022-07-26T02:52:21.091Z,0
2022-07-26T02:53:21.068Z,0
2022-07-26T02:54:21.077Z,0
2022-07-26T02:55:21.095Z,0
2022-07-26T02:56:21.097Z,0
2022-07-26T02:57:21.102Z,0
2022-07-26T02:58:21.084Z,0
2022-07-26T02:59:21.108Z,0
2022-07-26T03:00:21.126Z,0
2022-07-26T03:01:21.407Z,0
2022-07-26T03:02:21.341Z,0
2022-07-26T03:03:21.154Z,0
2022-07-26T03:04:21.105Z,0
2022-07-26T03:05:21.090Z,0
2022-07-26T03:06:21.110Z,0
2022-07-26T03:07:21.141Z,0
2022-07-26T03:08:21.098Z,0
2022-07-26T03:09:21.110Z,0
2022-07-26T03:10:21.116Z,0
2022-07-26T03:11:21.106Z,0
2022-07-26T03:12:21.121Z,0
2022-07-26T03:13:21.123Z,0
2022-07-26T03:14:21.111Z,0
2022-07-26T03:15:21.106Z,0
2022-07-26T03:16:31.981Z,0
2022-07-26T03:17:21.140Z,0
2022-07-26T03:18:24.140Z,0
2022-07-26T03:19:21.132Z,0
2022-07-26T03:20:21.119Z,0
2022-07-26T03:21:21.140Z,0
2022-07-26T03:22:21.150Z,0
2022-07-26T03:23:22.184Z,0
2022-07-26T03:24:21.122Z,0
2022-07-26T03:25:21.131Z,0
2022-07-26T03:26:21.132Z,0
2022-07-26T03:27:21.165Z,0
2022-07-26T03:28:26.124Z,0
2022-07-26T03:29:23.966Z,4
2022-07-26T03:30:29.215Z,4
2022-07-26T03:31:21.544Z,0
2022-07-26T03:32:21.248Z,0
2022-07-26T03:33:21.169Z,0
2022-07-26T03:34:24.164Z,0
2022-07-26T03:35:21.153Z,0
2022-07-26T03:36:22.712Z,4
2022-07-26T03:37:21.187Z,4
2022-07-26T03:38:21.148Z,4
2022-07-26T03:39:21.171Z,0
2022-07-26T03:40:21.161Z,4
2022-07-26T03:41:21.162Z,4
2022-07-26T03:42:21.212Z,4
2022-07-26T03:43:25.740Z,4
2022-07-26T03:44:21.156Z,4
2022-07-26T03:45:24.240Z,8
2022-07-26T03:46:21.549Z,8
2022-07-26T03:47:21.191Z,8
2022-07-26T03:48:21.174Z,8
2022-07-26T03:49:24.322Z,8
2022-07-26T03:50:21.187Z,8
2022-07-26T03:51:21.184Z,12
2022-07-26T03:52:21.228Z,12
2022-07-26T03:53:21.193Z,12
2022-07-26T03:54:21.189Z,8
2022-07-26T03:55:21.188Z,12
2022-07-26T03:56:25.060Z,12
2022-07-26T03:57:21.213Z,12
2022-07-26T03:58:21.192Z,12
2022-07-26T03:59:21.226Z,16
2022-07-26T04:00:21.189Z,12
2022-07-26T04:01:22.737Z,12
2022-07-26T04:02:21.536Z,16
2022-07-26T04:03:21.237Z,12
2022-07-26T04:04:27.664Z,16
2022-07-26T04:05:28.627Z,16
2022-07-26T04:06:25.472Z,20
2022-07-26T04:07:23.784Z,20
2022-07-26T04:08:21.326Z,24
2022-07-26T04:09:21.285Z,20
2022-07-26T04:10:22.982Z,24
2022-07-26T04:11:21.310Z,24
2022-07-26T04:12:21.304Z,28
2022-07-26T04:13:21.312Z,28
2022-07-26T04:14:21.267Z,28
2022-07-26T04:15:21.593Z,32
2022-07-26T04:16:21.342Z,32
2022-07-26T04:17:21.576Z,40
2022-07-26T04:18:26.373Z,44
2022-07-26T04:19:24.012Z,48
2022-07-26T04:20:21.310Z,48
2022-07-26T04:21:21.273Z,52
2022-07-26T04:22:21.263Z,56
2022-07-26T04:23:24.002Z,60
2022-07-26T04:24:25.381Z,60
2022-07-26T04:25:21.244Z,68
2022-07-26T04:26:21.253Z,68
2022-07-26T04:27:21.273Z,72
2022-07-26T04:28:21.245Z,72
2022-07-26T04:29:24.149Z,76
2022-07-26T04:30:22.565Z,76
2022-07-26T04:31:21.717Z,80
2022-07-26T04:32:21.278Z,80
2022-07-26T04:33:21.263Z,76
2022-07-26T04:34:24.312Z,76
2022-07-26T04:35:21.266Z,76
2022-07-26T04:36:21.254Z,76
2022-07-26T04:37:21.326Z,76
2022-07-26T04:38:21.419Z,76
2022-07-26T04:39:21.266Z,76
2022-07-26T04:40:23.938Z,72
2022-07-26T04:41:21.258Z,76
2022-07-26T04:42:21.340Z,76
2022-07-26T04:43:22.451Z,76
2022-07-26T04:44:21.273Z,76
2022-07-26T04:45:24.110Z,80
2022-07-26T04:46:21.680Z,80
2022-07-26T04:47:21.322Z,84
2022-07-26T04:48:21.296Z,88
2022-07-26T04:49:21.569Z,88
2022-07-26T04:50:22.212Z,92
2022-07-26T04:51:24.044Z,92
2022-07-26T04:52:21.313Z,96
2022-07-26T04:53:22.123Z,92
2022-07-26T04:54:21.300Z,96
2022-07-26T04:55:21.326Z,100
2022-07-26T04:56:24.298Z,104
2022-07-26T04:57:21.355Z,104
2022-07-26T04:58:23.678Z,104
2022-07-26T04:59:26.628Z,108
2022-07-26T05:00:29.282Z,108
2022-07-26T05:01:21.641Z,108
2022-07-26T05:02:22.928Z,108
2022-07-26T05:03:21.545Z,112
2022-07-26T05:04:21.325Z,112
2022-07-26T05:05:21.314Z,116
2022-07-26T05:06:21.307Z,120
2022-07-26T05:07:24.650Z,120
2022-07-26T05:08:21.388Z,124
2022-07-26T05:09:21.327Z,128
2022-07-26T05:10:22.416Z,132
2022-07-26T05:11:21.343Z,140
2022-07-26T05:12:21.343Z,144
2022-07-26T05:13:33.798Z,152
2022-07-26T05:14:23.930Z,156
2022-07-26T05:15:21.351Z,156
2022-07-26T05:16:21.779Z,160
2022-07-26T05:17:28.323Z,168
2022-07-26T05:18:29.260Z,176
2022-07-26T05:19:21.345Z,180
2022-07-26T05:20:21.371Z,184
2022-07-26T05:21:21.358Z,192
2022-07-26T05:22:21.360Z,196
2022-07-26T05:23:21.392Z,200
2022-07-26T05:24:21.360Z,204
2022-07-26T05:25:21.419Z,208
2022-07-26T05:26:21.494Z,208
2022-07-26T05:27:21.425Z,216
2022-07-26T05:28:21.419Z,220
2022-07-26T05:29:21.380Z,224
2022-07-26T05:30:24.116Z,228
2022-07-26T05:31:21.838Z,232
2022-07-26T05:32:21.403Z,240
2022-07-26T05:33:23.456Z,240
2022-07-26T05:34:21.476Z,240
2022-07-26T05:35:21.399Z,248
2022-07-26T05:36:21.453Z,252
2022-07-26T05:37:21.421Z,248
2022-07-26T05:38:21.488Z,244
2022-07-26T05:39:23.042Z,244
2022-07-26T05:40:21.392Z,248
2022-07-26T05:41:48.029Z,248
2022-07-26T05:43:14.156Z,240
2022-07-26T05:44:33.874Z,236
2022-07-26T05:45:35.868Z,232
2022-07-26T05:46:25.019Z,232
2022-07-26T05:47:26.624Z,228
2022-07-26T05:48:25.447Z,228
2022-07-26T05:49:24.654Z,228
2022-07-26T05:50:24.706Z,228
2022-07-26T05:51:26.024Z,228
2022-07-26T05:52:24.461Z,224
2022-07-26T05:53:24.487Z,216
2022-07-26T05:54:29.888Z,216
2022-07-26T05:55:24.466Z,212
2022-07-26T05:56:27.266Z,204
2022-07-26T05:57:24.483Z,204
2022-07-26T05:58:24.498Z,200
2022-07-26T05:59:24.497Z,200
2022-07-26T06:00:24.481Z,208
2022-07-26T06:01:29.314Z,208
2022-07-26T06:02:24.867Z,204
2022-07-26T06:03:24.553Z,204
2022-07-26T06:04:27.386Z,208
2022-07-26T06:05:24.522Z,212
2022-07-26T06:06:24.496Z,220
2022-07-26T06:07:27.499Z,224
2022-07-26T06:08:24.737Z,224
2022-07-26T06:09:25.600Z,232
2022-07-26T06:10:24.515Z,256
2022-07-26T06:11:24.502Z,256
2022-07-26T06:12:26.958Z,244
2022-07-26T06:13:25.694Z,248
2022-07-26T06:14:24.960Z,272
2022-07-26T06:15:24.514Z,268
2022-07-26T06:16:48.223Z,296
2022-07-26T06:17:25.263Z,292
2022-07-26T06:18:28.503Z,312
2022-07-26T06:19:24.547Z,328
2022-07-26T06:20:24.533Z,408
2022-07-26T06:21:25.083Z,424
2022-07-26T06:22:26.807Z,472
2022-07-26T06:23:41.651Z,304
2022-07-26T06:24:24.782Z,368
2022-07-26T06:25:24.521Z,440
2022-07-26T06:26:25.555Z,440
2022-07-26T06:27:24.541Z,648
2022-07-26T06:28:24.610Z,524
2022-07-26T06:29:34.239Z,680
2022-07-26T06:30:26.272Z,644
2022-07-26T06:31:26.238Z,692
2022-07-26T06:33:21.225Z,1260
2022-07-26T06:33:49.847Z,1188
2022-07-26T06:34:34.742Z,944
2022-07-26T06:35:36.801Z,1544
2022-07-26T06:36:58.794Z,2324
2022-07-26T06:37:44.715Z,2760
2022-07-26T06:38:39.142Z,2892
2022-07-26T06:39:39.597Z,2684
2022-07-26T06:40:40.539Z,2984
2022-07-26T06:41:44.712Z,3000
2022-07-26T06:42:40.968Z,2892
2022-07-26T06:43:48.041Z,2724
2022-07-26T06:44:41.015Z,2612
2022-07-26T06:45:40.046Z,2544
2022-07-26T06:46:39.549Z,2516
2022-07-26T06:47:44.297Z,2540
2022-07-26T06:48:47.499Z,2592
2022-07-26T06:49:41.171Z,2580
2022-07-26T06:50:41.143Z,2572
2022-07-26T06:51:41.304Z,2504
2022-07-26T06:52:42.873Z,2196
2022-07-26T06:53:41.253Z,1648
2022-07-26T06:54:40.235Z,2184
2022-07-26T06:55:40.922Z,2168
2022-07-26T06:56:43.545Z,2328
2022-07-26T06:57:54.705Z,2336
2022-07-26T06:58:39.088Z,2300
2022-07-26T06:59:39.098Z,2212
2022-07-26T07:00:39.185Z,2144
2022-07-26T07:02:07.138Z,2020
2022-07-26T07:02:39.088Z,1980
2022-07-26T07:03:39.087Z,1936
2022-07-26T07:04:39.473Z,1956
2022-07-26T07:05:40.160Z,2008
2022-07-26T07:06:39.116Z,2076
2022-07-26T07:07:42.160Z,2148
2022-07-26T07:08:44.881Z,2200
2022-07-26T07:09:39.600Z,2244
2022-07-26T07:10:41.431Z,2280
2022-07-26T07:11:40.327Z,2304
2022-07-26T07:12:39.120Z,2328
2022-07-26T07:13:40.542Z,2352
2022-07-26T07:14:39.252Z,2356
2022-07-26T07:15:39.109Z,2368
2022-07-26T07:16:39.521Z,2368
2022-07-26T07:17:39.112Z,2380
2022-07-26T07:18:39.122Z,2380
2022-07-26T07:19:39.180Z,2364
2022-07-26T07:20:39.617Z,2372
2022-07-26T07:21:39.167Z,2368
2022-07-26T07:22:39.139Z,2364
2022-07-26T07:23:39.128Z,2392
2022-07-26T07:24:40.029Z,2424
2022-07-26T07:25:39.630Z,2448
2022-07-26T07:26:41.336Z,2468
2022-07-26T07:27:40.061Z,2448
2022-07-26T07:28:39.386Z,2512
2022-07-26T07:29:41.280Z,2508
2022-07-26T07:30:40.622Z,2492
2022-07-26T07:32:03.325Z,2576
2022-07-26T07:32:40.237Z,2628
2022-07-26T07:33:59.744Z,2688
2022-07-26T07:34:40.633Z,2680
2022-07-26T07:35:45.583Z,2720
2022-07-26T07:36:40.573Z,688
2022-07-26T07:38:02.520Z,2948
2022-07-26T07:38:47.484Z,848
2022-07-26T07:39:48.714Z,2956
2022-07-26T07:40:42.218Z,476
2022-07-26T07:41:39.253Z,384
2022-07-26T07:42:39.171Z,372
2022-07-26T07:43:39.160Z,412
2022-07-26T07:44:39.706Z,444
2022-07-26T07:45:39.008Z,2408
2022-07-26T07:46:42.285Z,3056
2022-07-26T07:47:39.256Z,3224
2022-07-26T07:48:45.036Z,2896
2022-07-26T07:49:39.573Z,3344
2022-07-26T07:50:39.991Z,3416
2022-07-26T07:51:44.079Z,3452
2022-07-26T07:52:39.237Z,708
2022-07-26T07:53:39.915Z,400
2022-07-26T07:54:39.998Z,420
2022-07-26T07:55:50.514Z,3580
2022-07-26T07:56:39.199Z,3608
2022-07-26T07:57:39.498Z,3680
2022-07-26T07:58:39.213Z,3928
2022-07-26T07:59:44.109Z,3864
2022-07-26T08:00:39.675Z,3876
2022-07-26T08:01:49.747Z,4052
2022-07-26T08:02:42.293Z,448
2022-07-26T08:03:53.006Z,384
2022-07-26T08:04:39.721Z,3976
2022-07-26T08:05:44.816Z,2944
2022-07-26T08:06:43.165Z,348
2022-07-26T08:07:43.463Z,332
2022-07-26T08:08:42.051Z,344
2022-07-26T08:09:47.364Z,436
2022-07-26T08:10:53.974Z,3252
2022-07-26T08:11:44.134Z,3480
2022-07-26T08:12:39.826Z,2592
2022-07-26T08:13:47.878Z,3720
2022-07-26T08:14:43.253Z,3572
2022-07-26T08:15:43.662Z,704
2022-07-26T08:16:39.975Z,3476
2022-07-26T08:17:51.347Z,1216
2022-07-26T08:18:56.481Z,3252
2022-07-26T08:19:49.364Z,2540
2022-07-26T08:20:39.830Z,1476
2022-07-26T08:21:40.186Z,768
2022-07-26T08:22:39.229Z,396
2022-07-26T08:23:39.251Z,396
2022-07-26T08:24:42.836Z,592
2022-07-26T08:25:57.984Z,2364
2022-07-26T08:26:39.272Z,648
2022-07-26T08:28:05.085Z,2352
2022-07-26T08:29:04.176Z,2028
2022-07-26T08:29:39.613Z,700
2022-07-26T08:30:42.201Z,1000
2022-07-26T08:31:39.679Z,2584
2022-07-26T08:32:39.288Z,684
2022-07-26T08:33:45.072Z,716
2022-07-26T08:34:39.287Z,736
2022-07-26T08:35:40.343Z,1900
2022-07-26T08:37:07.183Z,584
2022-07-26T08:37:39.720Z,564
2022-07-26T08:38:39.293Z,2248
2022-07-26T08:39:39.332Z,2204
2022-07-26T08:40:39.296Z,2188
2022-07-26T08:41:42.374Z,2180
2022-07-26T08:42:39.289Z,620
2022-07-26T08:43:57.265Z,2152
2022-07-26T08:44:39.308Z,2144
2022-07-26T08:45:39.297Z,1132
2022-07-26T08:46:42.661Z,732
2022-07-26T08:48:20.864Z,2100
2022-07-26T08:48:45.679Z,2092
2022-07-26T08:49:39.558Z,896
2022-07-26T08:50:39.310Z,592
2022-07-26T08:51:39.330Z,528
2022-07-26T08:52:39.309Z,512
2022-07-26T08:53:39.299Z,1972
2022-07-26T08:54:39.398Z,1940
2022-07-26T08:56:12.304Z,1908
2022-07-26T08:56:39.320Z,1896
2022-07-26T08:57:42.358Z,1716
2022-07-26T08:58:39.306Z,808
2022-07-26T08:59:39.365Z,700
2022-07-26T09:00:39.630Z,708
2022-07-26T09:01:39.551Z,1656
2022-07-26T09:02:39.325Z,912
2022-07-26T09:03:39.693Z,1960
2022-07-26T09:04:48.441Z,672
2022-07-26T09:05:39.327Z,624
2022-07-26T09:06:39.321Z,552
2022-07-26T09:07:39.422Z,508
2022-07-26T09:08:42.141Z,524
2022-07-26T09:09:39.383Z,532
2022-07-26T09:10:45.649Z,524
2022-07-26T09:11:39.338Z,852
2022-07-26T09:12:39.357Z,1732
2022-07-26T09:13:39.361Z,972
2022-07-26T09:14:39.551Z,444
2022-07-26T09:15:39.408Z,436
2022-07-26T09:16:44.906Z,956
2022-07-26T09:17:39.342Z,516
2022-07-26T09:18:39.350Z,744
2022-07-26T09:19:42.512Z,1248
2022-07-26T09:20:39.388Z,592
2022-07-26T09:21:39.375Z,1624
2022-07-26T09:22:39.363Z,1712
2022-07-26T09:23:39.371Z,1776
2022-07-26T09:24:39.431Z,1380
2022-07-26T09:25:39.412Z,780
2022-07-26T09:26:39.362Z,632
2022-07-26T09:27:39.412Z,608
2022-07-26T09:28:47.202Z,1268
2022-07-26T09:29:39.379Z,732
2022-07-26T09:30:39.402Z,1600
2022-07-26T09:31:40.100Z,692
2022-07-26T09:32:39.391Z,604
2022-07-26T09:33:39.383Z,600
2022-07-26T09:34:58.270Z,508
2022-07-26T09:35:58.443Z,448
2022-07-26T09:36:39.515Z,416
2022-07-26T09:37:39.547Z,396
2022-07-26T09:38:39.408Z,352
2022-07-26T09:39:40.699Z,344
2022-07-26T09:40:39.415Z,324
2022-07-26T09:41:39.438Z,304
2022-07-26T09:42:39.408Z,304
2022-07-26T09:43:39.415Z,320
2022-07-26T09:44:52.591Z,340
2022-07-26T09:45:39.707Z,368
2022-07-26T09:46:39.762Z,412
2022-07-26T09:47:39.464Z,1512
2022-07-26T09:49:15.543Z,1312
2022-07-26T09:49:47.754Z,1616
2022-07-26T09:50:39.446Z,1640
2022-07-26T09:51:41.099Z,1600
2022-07-26T09:52:39.465Z,584
2022-07-26T09:53:39.463Z,1608
2022-07-26T09:54:39.455Z,1604
2022-07-26T09:55:51.086Z,1600
2022-07-26T09:56:39.626Z,1600
2022-07-26T09:57:39.461Z,1608
2022-07-26T09:58:39.453Z,1612
2022-07-26T09:59:39.438Z,1596
2022-07-26T10:00:39.464Z,1620
2022-07-26T10:01:39.729Z,1624
2022-07-26T10:02:42.472Z,1664
2022-07-26T10:03:39.438Z,1696
2022-07-26T10:04:39.921Z,1692
2022-07-26T10:05:40.117Z,1700
2022-07-26T10:06:39.522Z,1708
2022-07-26T10:07:43.195Z,1696
2022-07-26T10:08:39.465Z,1668
2022-07-26T10:09:39.529Z,1648
2022-07-26T10:10:40.464Z,1660
2022-07-26T10:11:39.475Z,1700
2022-07-26T10:12:39.498Z,836
2022-07-26T10:13:42.245Z,872
2022-07-26T10:14:39.493Z,688
2022-07-26T10:15:39.694Z,1732
2022-07-26T10:16:43.242Z,1724
2022-07-26T10:17:45.391Z,848
2022-07-26T10:18:45.116Z,720
2022-07-26T10:19:50.561Z,704
2022-07-26T10:20:44.667Z,740
2022-07-26T10:21:39.514Z,644
2022-07-26T10:22:39.480Z,684
2022-07-26T10:23:39.478Z,1728
2022-07-26T10:24:42.272Z,1656
2022-07-26T10:25:39.473Z,952
2022-07-26T10:26:39.690Z,1780
2022-07-26T10:27:39.514Z,1792
2022-07-26T10:28:39.484Z,1764
2022-07-26T10:29:42.545Z,1012
2022-07-26T10:30:42.334Z,680
2022-07-26T10:31:39.895Z,860
2022-07-26T10:32:39.481Z,616
2022-07-26T10:33:39.521Z,696
2022-07-26T10:34:39.533Z,636
2022-07-26T10:35:42.511Z,764
2022-07-26T10:36:39.551Z,852
2022-07-26T10:37:45.924Z,500
2022-07-26T10:38:39.513Z,476
2022-07-26T10:39:39.508Z,460
2022-07-26T10:40:42.517Z,472
2022-07-26T10:41:39.547Z,460
2022-07-26T10:42:39.516Z,1612
2022-07-26T10:43:48.682Z,460
2022-07-26T10:44:39.558Z,448
2022-07-26T10:45:39.525Z,440
2022-07-26T10:46:43.139Z,432
2022-07-26T10:47:42.312Z,436
2022-07-26T10:48:39.923Z,448
2022-07-26T10:49:39.525Z,1632
2022-07-26T10:50:39.532Z,1552
2022-07-26T10:51:42.866Z,616
2022-07-26T10:52:39.526Z,1584
2022-07-26T10:53:39.545Z,1576
2022-07-26T10:54:39.530Z,1576
2022-07-26T10:55:39.535Z,1572
2022-07-26T10:56:40.876Z,1560
2022-07-26T10:57:42.591Z,1544
2022-07-26T10:58:39.567Z,1528
2022-07-26T11:00:02.267Z,1520
2022-07-26T11:00:39.571Z,1524
2022-07-26T11:01:40.059Z,888
2022-07-26T11:02:43.296Z,380
2022-07-26T11:03:48.099Z,316
2022-07-26T11:04:41.626Z,296
2022-07-26T11:05:39.575Z,300
2022-07-26T11:06:39.591Z,328
2022-07-26T11:07:39.600Z,356
2022-07-26T11:08:47.557Z,1548
2022-07-26T11:09:39.582Z,1548
2022-07-26T11:10:39.571Z,1552
2022-07-26T11:11:39.595Z,1560
2022-07-26T11:12:39.564Z,1272
2022-07-26T11:13:42.605Z,1424
2022-07-26T11:14:43.802Z,1532
2022-07-26T11:15:39.961Z,1492
2022-07-26T11:16:39.719Z,1472
2022-07-26T11:17:39.580Z,1464
2022-07-26T11:18:39.698Z,1456
2022-07-26T11:19:42.481Z,1452
2022-07-26T11:20:39.593Z,1440
2022-07-26T11:21:39.655Z,1444
2022-07-26T11:22:39.628Z,1448
2022-07-26T11:23:39.622Z,1456
2022-07-26T11:24:42.392Z,1460
2022-07-26T11:25:40.311Z,1468
2022-07-26T11:26:39.620Z,1476
2022-07-26T11:27:39.624Z,1484
2022-07-26T11:28:40.593Z,1476
2022-07-26T11:29:53.884Z,1484
2022-07-26T11:30:40.081Z,388
2022-07-26T11:32:21.862Z,1036
2022-07-26T11:32:43.608Z,1532
2022-07-26T11:33:39.632Z,1432
2022-07-26T11:34:39.627Z,1488
2022-07-26T11:35:39.874Z,1460
2022-07-26T11:36:39.735Z,1444
2022-07-26T11:37:39.621Z,1448
2022-07-26T11:38:39.620Z,344
2022-07-26T11:39:39.695Z,340
2022-07-26T11:40:39.634Z,328
2022-07-26T11:41:44.625Z,336
2022-07-26T11:42:39.645Z,356
2022-07-26T11:43:39.639Z,364
2022-07-26T11:44:39.661Z,1408
2022-07-26T11:45:39.653Z,1396
2022-07-26T11:46:43.939Z,1396
2022-07-26T11:47:39.641Z,1396
2022-07-26T11:48:39.902Z,1396
2022-07-26T11:50:25.605Z,1380
2022-07-26T11:51:39.695Z,1360
2022-07-26T11:52:40.212Z,1368
2022-07-26T11:53:41.734Z,1348
2022-07-26T11:54:39.647Z,1364
2022-07-26T11:55:44.147Z,1320
2022-07-26T11:56:39.678Z,1340
2022-07-26T11:57:40.009Z,1336
2022-07-26T11:58:39.658Z,1332
2022-07-26T11:59:39.655Z,1336
2022-07-26T12:00:39.694Z,1332
2022-07-26T12:01:39.685Z,1336
2022-07-26T12:02:42.701Z,1332
2022-07-26T12:03:39.828Z,292
2022-07-26T12:04:40.320Z,292
2022-07-26T12:05:40.133Z,304
2022-07-26T12:06:39.785Z,308
2022-07-26T12:07:40.328Z,332
2022-07-26T12:08:39.684Z,1424
2022-07-26T12:09:39.678Z,1404
2022-07-26T12:10:39.755Z,1408
2022-07-26T12:11:39.768Z,1416
2022-07-26T12:12:39.700Z,1408
2022-07-26T12:14:02.082Z,1444
2022-07-26T12:14:39.678Z,1420
2022-07-26T12:15:39.884Z,1200
2022-07-26T12:16:39.910Z,408
2022-07-26T12:17:42.251Z,1432
2022-07-26T12:18:39.717Z,1444
2022-07-26T12:19:39.698Z,596
2022-07-26T12:20:39.716Z,1448
2022-07-26T12:21:39.725Z,1444
2022-07-26T12:22:39.713Z,1424
2022-07-26T12:23:39.725Z,1440
2022-07-26T12:24:39.714Z,1444
2022-07-26T12:25:47.847Z,400
2022-07-26T12:26:39.738Z,372
2022-07-26T12:27:39.743Z,1460
2022-07-26T12:28:39.736Z,1432
2022-07-26T12:29:41.072Z,1428
2022-07-26T12:30:40.018Z,1424
2022-07-26T12:31:40.232Z,1420
2022-07-26T12:32:39.726Z,1424
2022-07-26T12:33:39.745Z,1396
2022-07-26T12:34:42.543Z,1380
2022-07-26T12:35:39.743Z,1380
2022-07-26T12:36:39.751Z,1376
2022-07-26T12:37:47.523Z,1376
2022-07-26T12:38:39.746Z,1400
2022-07-26T12:39:39.758Z,1396
2022-07-26T12:40:42.887Z,1424
2022-07-26T12:41:39.767Z,392
2022-07-26T12:42:41.437Z,1452
2022-07-26T12:43:39.744Z,1444
2022-07-26T12:44:39.752Z,1456
2022-07-26T12:45:42.801Z,1172
2022-07-26T12:46:40.382Z,508
2022-07-26T12:47:39.772Z,1104
2022-07-26T12:48:39.961Z,400
2022-07-26T12:49:39.975Z,380
2022-07-26T12:50:39.882Z,376
2022-07-26T12:51:42.926Z,364
2022-07-26T12:52:39.829Z,368
2022-07-26T12:53:39.787Z,416
2022-07-26T12:54:39.781Z,1464
2022-07-26T12:55:39.792Z,1496
2022-07-26T12:56:43.923Z,432
2022-07-26T12:57:48.272Z,388
2022-07-26T12:58:39.513Z,396
2022-07-26T12:59:47.203Z,364
2022-07-26T13:00:40.432Z,364
2022-07-26T13:01:40.294Z,360
2022-07-26T13:02:42.958Z,372
2022-07-26T13:03:39.699Z,404
2022-07-26T13:04:40.036Z,412
2022-07-26T13:05:39.865Z,648
2022-07-26T13:06:40.023Z,1432
2022-07-26T13:07:42.891Z,1444
2022-07-26T13:08:39.816Z,1428
2022-07-26T13:09:39.806Z,344
2022-07-26T13:10:42.087Z,380
2022-07-26T13:11:39.865Z,688
2022-07-26T13:12:39.863Z,1464
2022-07-26T13:13:41.007Z,1436
2022-07-26T13:14:39.819Z,1456
2022-07-26T13:15:44.412Z,1460
2022-07-26T13:16:40.036Z,1444
2022-07-26T13:17:39.846Z,1432
2022-07-26T13:18:43.909Z,1428
2022-07-26T13:19:39.828Z,1436
2022-07-26T13:20:39.848Z,1412
2022-07-26T13:21:40.451Z,1400
2022-07-26T13:22:40.624Z,1372
2022-07-26T13:23:43.590Z,1340
2022-07-26T13:24:45.180Z,1312
2022-07-26T13:25:47.636Z,1296
2022-07-26T13:26:43.778Z,1268
2022-07-26T13:27:49.144Z,1272
2022-07-26T13:28:39.849Z,1272
2022-07-26T13:29:42.990Z,1264
2022-07-26T13:30:40.326Z,1260
2022-07-26T13:31:40.097Z,1248
2022-07-26T13:32:39.862Z,820
2022-07-26T13:33:39.904Z,468
2022-07-26T13:34:43.926Z,772
2022-07-26T13:35:42.870Z,1168
2022-07-26T13:36:39.888Z,1260
2022-07-26T13:37:39.853Z,1244
2022-07-26T13:38:40.110Z,1236
2022-07-26T13:39:39.867Z,1236
2022-07-26T13:40:41.037Z,1248
2022-07-26T13:41:43.892Z,1172
2022-07-26T13:42:39.867Z,1264
2022-07-26T13:43:39.878Z,1248
2022-07-26T13:44:39.875Z,1240
2022-07-26T13:45:40.450Z,1156
2022-07-26T13:46:46.748Z,332
2022-07-26T13:47:39.878Z,332
2022-07-26T13:49:00.384Z,1104
2022-07-26T13:49:40.196Z,1248
2022-07-26T13:50:39.863Z,1260
2022-07-26T13:51:42.698Z,1256
2022-07-26T13:52:39.903Z,1240
2022-07-26T13:53:57.974Z,532
2022-07-26T13:54:39.889Z,344
2022-07-26T13:55:39.893Z,324
2022-07-26T13:56:39.906Z,328